Time;durP1;ratioP1;P1;durP2;ratioP2;P2;SDS_P1;SDS_P2;PMS_P1;PMS_P2;Temp;Humidity;BMP_temperature;BMP_pressure;BME280_temperature;BME280_humidity;BME280_pressure;Samples;Min_cycle;Max_cycle;Signal;HPM_P1;HPM_P2
2023/07/10 00:01:06;;;;;;;27.02;15.25;;;18.90;99.90;;;;;;5096754;28;20081;-86
2023/07/10 00:03:32;;;;;;;27.73;15.25;;;18.90;99.90;;;;;;5096735;28;20527;-85
2023/07/10 00:05:59;;;;;;;20.10;14.05;;;18.90;99.90;;;;;;5099048;28;20044;-84
2023/07/10 00:08:25;;;;;;;26.92;14.02;;;18.90;99.90;;;;;;5099631;28;20032;-85
2023/07/10 00:10:51;;;;;;;24.90;13.93;;;18.90;99.90;;;;;;5089752;28;20039;-86
2023/07/10 00:13:21;;;;;;;23.30;14.40;;;18.90;99.90;;;;;;5096584;28;20032;-85
2023/07/10 00:15:48;;;;;;;25.45;13.65;;;18.90;99.90;;;;;;5087007;28;20088;-84
2023/07/10 00:18:16;;;;;;;24.50;14.13;;;18.90;99.90;;;;;;5100135;28;20039;-85
2023/07/10 00:20:42;;;;;;;21.80;14.45;;;18.90;99.90;;;;;;5099898;28;20040;-84
2023/07/10 00:23:08;;;;;;;27.85;15.77;;;18.80;99.90;;;;;;5096738;28;20036;-85
2023/07/10 00:25:35;;;;;;;28.83;16.73;;;19.30;99.90;;;;;;5096633;28;20449;-86
2023/07/10 00:28:01;;;;;;;27.25;16.77;;;18.80;99.90;;;;;;5102835;28;20060;-85
2023/07/10 00:30:27;;;;;;;33.97;19.50;;;18.80;99.90;;;;;;5109633;28;20698;-86
2023/07/10 00:32:54;;;;;;;35.65;19.17;;;18.80;99.90;;;;;;5083255;28;20149;-86
2023/07/10 00:35:26;;;;;;;30.58;19.40;;;18.80;99.90;;;;;;5096480;28;20111;-84
2023/07/10 00:38:01;;;;;;;34.60;21.63;;;18.80;99.90;;;;;;5097483;28;20040;-87
2023/07/10 00:40:34;;;;;;;36.53;20.90;;;18.80;99.90;;;;;;5100272;28;20039;-85
2023/07/10 00:43:04;;;;;;;35.58;22.85;;;18.80;99.90;;;;;;5099555;28;20106;-86
2023/07/10 00:45:30;;;;;;;31.73;23.38;;;18.70;99.90;;;;;;5100455;28;20043;-86
2023/07/10 00:48:34;;;;;;;33.25;22.30;;;18.80;99.90;;;;;;5101524;28;20036;-85
2023/07/10 00:51:06;;;;;;;40.03;24.67;;;18.70;99.90;;;;;;5101717;28;20043;-85
2023/07/10 00:53:36;;;;;;;34.17;23.10;;;18.80;99.90;;;;;;5064897;28;20055;-85
2023/07/10 00:56:03;;;;;;;34.75;23.45;;;19.30;99.90;;;;;;5101035;28;20593;-84
2023/07/10 00:58:37;;;;;;;33.35;22.73;;;18.70;99.90;;;;;;5103482;28;20052;-84
2023/07/10 01:01:15;;;;;;;42.10;24.95;;;18.70;99.90;;;;;;5076956;28;20036;-85
2023/07/10 01:03:43;;;;;;;28.80;22.42;;;18.70;99.90;;;;;;5102964;28;20089;-85
2023/07/10 01:06:16;;;;;;;35.42;23.02;;;18.80;99.90;;;;;;5100912;28;20035;-85
2023/07/10 01:08:54;;;;;;;32.30;23.45;;;18.70;99.90;;;;;;5100069;28;20070;-85
2023/07/10 01:11:20;;;;;;;28.30;22.13;;;19.70;99.90;;;;;;5073243;28;20070;-85
2023/07/10 01:13:49;;;;;;;28.65;20.80;;;18.70;99.90;;;;;;5099293;28;20044;-84
2023/07/10 01:16:15;;;;;;;32.35;22.30;;;18.70;99.90;;;;;;5103202;28;20054;-85
2023/07/10 01:18:41;;;;;;;31.88;23.02;;;18.60;99.90;;;;;;5102449;28;20055;-85
2023/07/10 01:21:32;;;;;;;30.65;22.35;;;18.60;99.90;;;;;;5100875;28;20644;-85
2023/07/10 01:24:03;;;;;;;29.08;20.58;;;18.60;99.90;;;;;;5099508;28;20101;-86
2023/07/10 01:26:29;;;;;;;28.67;21.17;;;18.70;99.90;;;;;;5084869;28;20043;-86
2023/07/10 01:28:57;;;;;;;26.00;19.83;;;18.80;99.90;;;;;;5094423;28;20415;-85
2023/07/10 01:31:24;;;;;;;24.92;18.45;;;18.70;99.90;;;;;;5106834;28;20086;-86
2023/07/10 01:33:56;;;;;;;25.48;20.77;;;18.70;99.90;;;;;;5099150;28;20054;-86
2023/07/10 01:36:29;;;;;;;24.70;18.80;;;18.70;99.90;;;;;;5099523;28;20047;-86
2023/07/10 01:39:15;;;;;;;22.85;18.35;;;18.70;99.90;;;;;;5098828;28;20036;-86
2023/07/10 01:41:43;;;;;;;26.48;20.33;;;18.70;99.90;;;;;;5085214;28;20059;-87
2023/07/10 01:44:32;;;;;;;29.50;20.88;;;18.60;99.90;;;;;;5099837;28;20453;-85
2023/07/10 01:47:01;;;;;;;24.13;19.73;;;18.50;99.90;;;;;;5099095;28;20119;-86
2023/07/10 01:49:28;;;;;;;26.85;20.15;;;18.50;99.90;;;;;;5102718;28;20035;-85
2023/07/10 01:51:57;;;;;;;24.95;19.52;;;18.50;99.90;;;;;;5084801;28;20035;-85
2023/07/10 01:54:23;;;;;;;27.38;20.55;;;18.50;99.90;;;;;;5090021;28;20206;-86
2023/07/10 01:56:49;;;;;;;33.13;22.77;;;18.50;99.90;;;;;;5099593;28;20558;-86
2023/07/10 01:59:14;;;;;;;22.70;18.30;;;18.50;99.90;;;;;;5100949;28;20076;-87
2023/07/10 02:01:40;;;;;;;28.67;20.88;;;18.50;99.90;;;;;;5103473;28;20100;-87
2023/07/10 02:04:06;;;;;;;33.78;23.42;;;18.10;99.90;;;;;;5105764;28;20415;-87
2023/07/10 02:06:35;;;;;;;33.95;22.85;;;18.50;99.90;;;;;;5106991;28;20043;-87
2023/07/10 02:09:02;;;;;;;31.45;22.08;;;18.50;99.90;;;;;;5083455;28;20051;-87
2023/07/10 02:11:27;;;;;;;33.10;20.73;;;18.50;99.90;;;;;;5084235;28;20482;-86
2023/07/10 02:13:53;;;;;;;30.75;20.83;;;18.40;99.90;;;;;;5082773;28;20086;-87
2023/07/10 02:16:19;;;;;;;25.20;18.90;;;18.40;99.90;;;;;;5063589;28;20036;-87
2023/07/10 02:18:59;;;;;;;29.05;21.02;;;18.40;99.90;;;;;;5072618;28;20537;-88
2023/07/10 02:21:38;;;;;;;26.27;19.60;;;18.40;99.90;;;;;;5094907;28;20083;-87
2023/07/10 02:24:04;;;;;;;27.77;20.17;;;18.30;99.90;;;;;;5102278;28;20075;-86
2023/07/10 02:26:30;;;;;;;30.48;22.00;;;18.30;99.90;;;;;;5103326;28;20042;-87
2023/07/10 02:28:58;;;;;;;28.80;20.02;;;18.50;99.90;;;;;;5102852;28;20043;-87
2023/07/10 02:31:24;;;;;;;29.08;19.75;;;18.30;99.90;;;;;;5091108;28;20090;-87
2023/07/10 02:33:50;;;;;;;25.77;21.25;;;18.40;99.90;;;;;;5098420;28;20449;-85
2023/07/10 02:36:16;;;;;;;29.63;21.27;;;18.40;99.90;;;;;;5101839;28;20044;-85
2023/07/10 02:38:42;;;;;;;27.02;19.98;;;18.30;99.90;;;;;;5103636;28;20120;-86
2023/07/10 02:41:08;;;;;;;32.85;23.48;;;18.40;99.90;;;;;;5100421;28;20047;-85
2023/07/10 02:43:34;;;;;;;27.63;21.48;;;18.40;99.90;;;;;;5096964;28;20038;-86
2023/07/10 02:45:59;;;;;;;27.98;22.13;;;18.40;99.90;;;;;;5098061;28;20040;-86
2023/07/10 02:48:25;;;;;;;32.75;22.30;;;19.20;99.90;;;;;;5054701;28;20535;-85
2023/07/10 02:50:51;;;;;;;29.20;22.05;;;18.10;99.90;;;;;;5098231;28;20212;-86
2023/07/10 02:53:20;;;;;;;31.58;22.45;;;18.30;99.90;;;;;;5100208;28;20498;-86
2023/07/10 02:55:46;;;;;;;28.02;22.05;;;18.30;99.90;;;;;;5100452;28;20463;-85
2023/07/10 02:58:12;;;;;;;28.73;21.27;;;18.30;99.90;;;;;;5090679;28;20028;-85
2023/07/10 03:00:37;;;;;;;26.85;21.40;;;18.40;99.90;;;;;;5098115;28;20506;-86
2023/07/10 03:03:03;;;;;;;26.13;21.25;;;18.30;99.90;;;;;;5096837;28;20391;-86
2023/07/10 03:05:29;;;;;;;32.75;22.20;;;18.20;99.90;;;;;;5097184;28;20048;-86
2023/07/10 03:07:54;;;;;;;25.38;20.50;;;18.30;99.90;;;;;;5088203;28;20116;-86
2023/07/10 03:10:21;;;;;;;31.55;23.23;;;18.20;99.90;;;;;;5099661;28;20475;-85
2023/07/10 03:12:46;;;;;;;30.05;23.17;;;18.20;99.90;;;;;;5100726;28;20183;-84
2023/07/10 03:15:12;;;;;;;26.17;21.40;;;18.10;99.90;;;;;;5099572;28;20492;-85
2023/07/10 03:17:38;;;;;;;24.20;21.67;;;18.10;99.90;;;;;;5087228;28;20082;-86
2023/07/10 03:20:04;;;;;;;25.85;20.42;;;18.10;99.90;;;;;;5080634;28;20051;-86
2023/07/10 03:22:30;;;;;;;25.85;19.50;;;18.20;99.90;;;;;;5076842;28;20101;-87
2023/07/10 03:24:57;;;;;;;28.30;19.33;;;18.20;99.90;;;;;;5060016;28;20048;-88
2023/07/10 03:27:23;;;;;;;24.17;19.63;;;18.20;99.90;;;;;;5063520;28;20080;-87
2023/07/10 03:29:50;;;;;;;22.08;18.73;;;18.20;99.90;;;;;;5084309;28;20041;-87
2023/07/10 03:32:15;;;;;;;20.48;16.92;;;18.20;99.90;;;;;;5080309;28;20448;-87
2023/07/10 03:34:41;;;;;;;19.92;16.08;;;18.20;99.90;;;;;;5079078;28;20130;-87
2023/07/10 03:37:08;;;;;;;24.63;18.15;;;18.20;99.90;;;;;;5079536;28;20047;-87
2023/07/10 03:39:35;;;;;;;22.20;17.95;;;18.20;99.90;;;;;;5086782;28;20519;-87
2023/07/10 03:42:00;;;;;;;23.65;20.75;;;18.20;99.90;;;;;;5067263;28;20044;-88
2023/07/10 03:44:26;;;;;;;21.88;17.33;;;18.60;99.90;;;;;;5082074;28;20044;-87
2023/07/10 03:46:52;;;;;;;24.23;17.55;;;18.20;99.90;;;;;;5080142;28;20140;-88
2023/07/10 03:49:17;;;;;;;29.88;20.35;;;18.20;99.90;;;;;;5077936;28;20481;-88
2023/07/10 03:51:43;;;;;;;21.45;19.00;;;18.20;99.90;;;;;;5075157;28;20028;-87
2023/07/10 03:54:10;;;;;;;24.30;20.30;;;18.20;99.90;;;;;;5077075;28;20454;-86
2023/07/10 03:56:36;;;;;;;22.98;17.67;;;18.20;99.90;;;;;;5081065;28;20036;-87
2023/07/10 03:59:05;;;;;;;20.30;17.30;;;18.20;99.90;;;;;;5083913;28;20074;-87
2023/07/10 04:01:31;;;;;;;23.92;18.27;;;18.40;99.90;;;;;;5078901;28;20044;-86
2023/07/10 04:03:56;;;;;;;17.60;15.77;;;18.10;99.90;;;;;;5076389;28;20560;-86
2023/07/10 04:06:22;;;;;;;18.13;14.88;;;18.10;99.90;;;;;;5084698;28;20098;-86
2023/07/10 04:08:48;;;;;;;18.17;16.15;;;18.10;99.90;;;;;;5074116;28;20044;-85
2023/07/10 04:11:17;;;;;;;17.63;14.35;;;18.10;99.90;;;;;;5079608;28;20032;-86
2023/07/10 04:13:43;;;;;;;18.38;16.48;;;19.10;99.90;;;;;;5076330;28;20089;-86
2023/07/10 04:16:19;;;;;;;20.05;15.95;;;18.20;99.90;;;;;;5077225;28;20437;-87
2023/07/10 04:18:47;;;;;;;24.30;17.58;;;18.20;99.90;;;;;;5089739;28;20048;-85
2023/07/10 04:21:21;;;;;;;16.73;14.77;;;18.20;99.90;;;;;;5082232;28;20412;-87
2023/07/10 04:23:47;;;;;;;19.98;15.20;;;18.20;99.90;;;;;;5081177;28;20134;-88
2023/07/10 04:26:19;;;;;;;21.00;15.27;;;18.20;99.90;;;;;;5101342;28;20040;-86
2023/07/10 04:28:46;;;;;;;20.63;16.10;;;18.20;99.90;;;;;;5104045;28;20051;-88
2023/07/10 04:31:12;;;;;;;15.82;11.55;;;18.20;99.90;;;;;;5104298;28;20084;-86
2023/07/10 04:33:38;;;;;;;17.73;13.55;;;18.20;99.90;;;;;;5100435;28;20036;-86
2023/07/10 04:36:04;;;;;;;20.25;12.00;;;18.20;99.90;;;;;;5100062;28;20052;-86
2023/07/10 04:38:29;;;;;;;12.02;10.85;;;18.20;99.90;;;;;;5103049;28;20047;-86
2023/07/10 04:40:56;;;;;;;14.55;10.57;;;18.10;99.90;;;;;;5102890;28;20055;-87
2023/07/10 04:43:23;;;;;;;13.27;10.60;;;18.10;99.90;;;;;;5102201;28;20039;-86
2023/07/10 04:45:49;;;;;;;12.63;11.10;;;18.10;99.90;;;;;;5099990;28;20037;-86
2023/07/10 04:48:15;;;;;;;13.45;9.75;;;18.10;99.90;;;;;;5100337;28;20122;-87
2023/07/10 04:50:49;;;;;;;12.00;10.43;;;18.00;99.90;;;;;;5104287;28;20114;-87
2023/07/10 04:53:16;;;;;;;10.63;9.52;;;18.00;99.90;;;;;;5103395;28;20071;-87
2023/07/10 04:55:43;;;;;;;12.27;8.35;;;18.00;99.90;;;;;;5082358;28;20036;-85
2023/07/10 04:58:09;;;;;;;11.23;8.00;;;18.00;99.90;;;;;;5082998;28;20498;-85
2023/07/10 05:00:35;;;;;;;10.45;7.25;;;17.90;99.90;;;;;;5085481;28;20076;-88
2023/07/10 05:03:02;;;;;;;11.77;8.43;;;17.90;99.90;;;;;;5084644;28;20497;-87
2023/07/10 05:05:28;;;;;;;11.57;7.35;;;17.90;99.90;;;;;;5101646;28;20058;-86
2023/07/10 05:07:53;;;;;;;12.50;8.00;;;17.90;99.90;;;;;;5100189;28;20062;-87
2023/07/10 05:10:19;;;;;;;8.80;7.43;;;17.90;99.90;;;;;;5082189;28;20089;-89
2023/07/10 05:12:44;;;;;;;10.93;8.48;;;17.90;99.90;;;;;;5085247;28;20461;-87
2023/07/10 05:15:10;;;;;;;10.65;7.60;;;17.90;99.90;;;;;;5104497;28;20031;-87
2023/07/10 05:17:36;;;;;;;9.70;8.27;;;17.90;99.90;;;;;;5110712;28;20108;-87
2023/07/10 05:20:01;;;;;;;13.73;8.88;;;17.90;99.90;;;;;;5086520;28;20130;-88
2023/07/10 05:22:27;;;;;;;12.85;7.68;;;17.90;99.90;;;;;;5100831;28;20059;-87
2023/07/10 05:24:52;;;;;;;9.45;8.25;;;18.70;99.90;;;;;;5084381;28;20119;-88
2023/07/10 05:27:18;;;;;;;10.57;8.25;;;18.00;99.90;;;;;;5085623;27;20047;-87
2023/07/10 05:29:44;;;;;;;11.30;8.93;;;18.00;99.90;;;;;;5094789;28;20092;-86
2023/07/10 05:32:09;;;;;;;11.07;7.60;;;18.00;99.90;;;;;;5101980;28;20061;-87
2023/07/10 05:34:35;;;;;;;13.55;8.65;;;18.00;99.90;;;;;;5100044;28;20051;-87
2023/07/10 05:37:01;;;;;;;12.50;7.72;;;18.00;99.90;;;;;;5101929;28;20043;-87
2023/07/10 05:39:28;;;;;;;9.80;7.10;;;18.00;99.90;;;;;;5081637;28;20051;-86
2023/07/10 05:41:54;;;;;;;12.88;7.03;;;18.50;99.90;;;;;;5084302;28;20039;-87
2023/07/10 05:44:20;;;;;;;11.02;6.35;;;18.00;99.90;;;;;;5101796;28;20119;-87
2023/07/10 05:46:45;;;;;;;7.53;6.03;;;18.00;99.90;;;;;;5094244;28;20039;-89
2023/07/10 05:49:11;;;;;;;8.32;5.72;;;18.00;99.90;;;;;;5084399;28;20039;-85
2023/07/10 05:51:37;;;;;;;7.82;5.05;;;18.00;99.90;;;;;;5081671;28;20050;-87
2023/07/10 05:54:02;;;;;;;9.95;5.00;;;18.10;99.90;;;;;;5097412;28;20050;-88
2023/07/10 05:56:28;;;;;;;5.40;3.85;;;18.00;99.90;;;;;;5101794;28;20078;-89
2023/07/10 05:58:54;;;;;;;7.30;3.53;;;18.10;99.90;;;;;;5098505;28;20391;-88
2023/07/10 06:01:19;;;;;;;9.23;3.10;;;18.10;99.90;;;;;;5082162;28;20047;-87
2023/07/10 06:03:45;;;;;;;11.02;3.85;;;18.00;99.90;;;;;;5102450;28;20032;-86
2023/07/10 06:06:11;;;;;;;6.70;3.78;;;18.00;99.90;;;;;;5083995;28;20046;-87
2023/07/10 06:08:37;;;;;;;6.22;3.20;;;18.00;99.90;;;;;;5082243;28;20093;-88
2023/07/10 06:11:04;;;;;;;8.55;3.70;;;18.00;99.90;;;;;;5098777;28;20047;-87
2023/07/10 06:13:30;;;;;;;6.35;3.05;;;18.10;99.90;;;;;;5098332;28;20051;-88
2023/07/10 06:15:57;;;;;;;6.10;2.85;;;18.10;99.90;;;;;;5103302;28;20409;-87
2023/07/10 06:18:24;;;;;;;7.22;3.47;;;18.60;99.90;;;;;;5101399;28;20122;-88
2023/07/10 06:20:56;;;;;;;5.93;3.40;;;18.00;99.90;;;;;;5054808;28;20565;-88
2023/07/10 06:23:23;;;;;;;5.60;2.65;;;18.00;99.90;;;;;;5098084;28;20058;-89
2023/07/10 06:25:50;;;;;;;5.68;3.30;;;18.00;99.90;;;;;;5101622;28;20469;-88
2023/07/10 06:28:16;;;;;;;7.28;3.80;;;18.00;99.90;;;;;;5083846;28;20050;-88
2023/07/10 06:30:43;;;;;;;6.97;3.47;;;18.10;99.90;;;;;;5088094;28;20036;-84
2023/07/10 06:33:09;;;;;;;9.50;2.97;;;18.00;99.90;;;;;;5061680;28;20120;-83
2023/07/10 06:35:35;;;;;;;5.95;2.92;;;18.10;99.90;;;;;;5096347;28;20040;-83
2023/07/10 06:38:01;;;;;;;8.43;3.38;;;18.10;99.90;;;;;;5101550;28;20227;-82
2023/07/10 06:40:26;;;;;;;9.00;3.47;;;18.10;99.90;;;;;;5094110;28;20123;-82
2023/07/10 06:42:52;;;;;;;5.05;3.22;;;18.10;99.90;;;;;;5071073;28;20396;-83
2023/07/10 06:45:18;;;;;;;9.50;3.10;;;18.20;99.90;;;;;;5088845;28;20073;-83
2023/07/10 06:47:45;;;;;;;10.27;4.07;;;18.20;99.90;;;;;;5097356;28;20040;-81
2023/07/10 06:50:13;;;;;;;6.75;3.50;;;18.20;99.90;;;;;;5093692;28;20517;-81
2023/07/10 06:52:43;;;;;;;11.02;3.80;;;18.30;99.90;;;;;;5103959;28;20047;-83
2023/07/10 06:55:12;;;;;;;9.05;3.67;;;18.40;99.90;;;;;;5115530;28;20043;-83
2023/07/10 06:57:38;;;;;;;11.35;4.10;;;18.40;99.90;;;;;;5091252;28;20051;-84
2023/07/10 07:00:06;;;;;;;10.35;3.50;;;18.40;99.90;;;;;;5086685;28;20041;-82
2023/07/10 07:02:34;;;;;;;8.73;3.22;;;18.50;99.90;;;;;;5083930;28;20047;-87
2023/07/10 07:04:59;;;;;;;10.10;3.30;;;18.50;99.90;;;;;;5079044;28;20135;-87
2023/07/10 07:07:25;;;;;;;13.05;3.20;;;18.90;99.90;;;;;;5097683;28;20097;-87
2023/07/10 07:09:50;;;;;;;6.88;2.88;;;18.60;99.90;;;;;;5065205;28;20522;-87
2023/07/10 07:12:16;;;;;;;7.82;2.65;;;18.70;99.90;;;;;;5082463;28;20490;-87
2023/07/10 07:14:42;;;;;;;11.38;3.17;;;18.70;99.90;;;;;;5099813;28;20079;-86
2023/07/10 07:17:07;;;;;;;11.10;3.10;;;18.80;99.90;;;;;;5097034;28;20041;-86
2023/07/10 07:19:33;;;;;;;9.82;2.90;;;18.80;99.90;;;;;;5097786;28;20055;-86
2023/07/10 07:22:01;;;;;;;8.57;3.17;;;18.80;99.90;;;;;;5101723;28;20035;-86
2023/07/10 07:24:27;;;;;;;5.60;2.45;;;18.90;99.90;;;;;;5101778;28;20027;-86
2023/07/10 07:26:52;;;;;;;9.25;2.33;;;18.90;99.90;;;;;;5098288;28;20441;-86
2023/07/10 07:29:18;;;;;;;9.50;2.58;;;19.00;99.90;;;;;;5098053;28;20036;-87
2023/07/10 07:31:44;;;;;;;8.07;3.08;;;19.00;99.90;;;;;;5098277;28;20097;-86
2023/07/10 07:34:09;;;;;;;8.25;2.38;;;19.00;99.90;;;;;;5100791;28;20486;-86
2023/07/10 07:36:36;;;;;;;7.97;2.80;;;19.10;99.90;;;;;;5100656;28;20070;-86
2023/07/10 07:39:04;;;;;;;8.73;2.78;;;19.10;99.90;;;;;;5096748;28;20052;-85
2023/07/10 07:41:34;;;;;;;6.60;2.33;;;19.20;99.90;;;;;;5097443;28;20182;-87
2023/07/10 07:44:01;;;;;;;12.73;2.47;;;19.20;99.90;;;;;;5069761;28;20130;-87
2023/07/10 07:46:27;;;;;;;10.00;2.53;;;19.30;99.90;;;;;;5097296;28;20051;-86
2023/07/10 07:48:53;;;;;;;7.35;2.25;;;19.30;99.90;;;;;;5099784;28;20044;-86
2023/07/10 07:51:19;;;;;;;11.80;2.67;;;19.30;99.90;;;;;;5101552;28;20494;-86
2023/07/10 07:53:45;;;;;;;7.82;2.70;;;19.30;99.90;;;;;;5104185;28;20169;-86
2023/07/10 07:56:12;;;;;;;12.65;3.38;;;19.30;99.90;;;;;;5104985;28;20457;-86
2023/07/10 07:58:38;;;;;;;5.72;2.10;;;19.40;99.90;;;;;;5104139;28;20046;-86
2023/07/10 08:01:11;;;;;;;11.00;2.17;;;19.40;99.90;;;;;;5102174;28;20052;-87
2023/07/10 08:03:37;;;;;;;9.25;2.33;;;19.50;99.90;;;;;;5101038;28;20055;-86
2023/07/10 08:06:03;;;;;;;6.85;2.38;;;19.50;99.90;;;;;;5085877;28;20472;-87
2023/07/10 08:08:28;;;;;;;6.97;2.03;;;19.50;99.90;;;;;;5104445;28;20110;-87
2023/07/10 08:10:54;;;;;;;7.00;2.65;;;19.60;99.90;;;;;;5083983;28;20370;-86
2023/07/10 08:13:20;;;;;;;5.85;2.22;;;19.70;99.90;;;;;;5064898;28;20040;-87
2023/07/10 08:15:48;;;;;;;8.70;2.88;;;19.70;99.90;;;;;;5084037;28;20403;-87
2023/07/10 08:18:14;;;;;;;9.77;2.30;;;19.80;99.90;;;;;;5104227;28;20058;-87
2023/07/10 08:20:40;;;;;;;10.32;2.30;;;19.90;99.90;;;;;;5103946;28;20048;-88
2023/07/10 08:23:05;;;;;;;8.82;2.60;;;19.90;99.90;;;;;;5100623;28;20036;-86
2023/07/10 08:25:31;;;;;;;9.27;2.42;;;20.00;99.90;;;;;;5100724;28;20040;-85
2023/07/10 08:27:58;;;;;;;9.23;2.42;;;20.00;99.90;;;;;;5103623;28;20040;-85
2023/07/10 08:30:24;;;;;;;9.20;3.20;;;20.00;99.90;;;;;;5111878;28;20038;-86
2023/07/10 08:32:50;;;;;;;7.45;2.47;;;20.00;99.90;;;;;;5110526;28;20035;-86
2023/07/10 08:35:16;;;;;;;12.70;3.00;;;20.00;99.90;;;;;;5100940;28;20051;-86
2023/07/10 08:37:42;;;;;;;10.30;3.47;;;20.10;99.90;;;;;;5100634;28;20036;-85
2023/07/10 08:40:22;;;;;;;9.13;2.33;;;20.10;99.90;;;;;;5073449;28;20055;-86
2023/07/10 08:42:47;;;;;;;8.75;3.08;;;20.20;99.90;;;;;;5100723;28;20047;-86
2023/07/10 08:45:20;;;;;;;9.35;2.72;;;20.20;99.90;;;;;;5103987;28;20399;-87
2023/07/10 08:47:51;;;;;;;9.33;2.40;;;20.30;99.90;;;;;;5102590;28;20046;-86
2023/07/10 08:50:28;;;;;;;8.77;2.85;;;20.30;99.90;;;;;;5082359;28;20043;-86
2023/07/10 08:53:10;;;;;;;7.45;2.38;;;20.30;99.90;;;;;;5104052;28;20134;-85
2023/07/10 08:55:41;;;;;;;10.93;2.70;;;20.40;99.90;;;;;;5087321;28;20495;-85
2023/07/10 08:58:16;;;;;;;7.70;2.03;;;20.40;99.90;;;;;;5100850;28;20423;-87
2023/07/10 09:00:44;;;;;;;11.45;2.80;;;20.50;99.90;;;;;;5082132;28;20055;-85
2023/07/10 09:03:41;;;;;;;11.48;2.88;;;20.60;99.90;;;;;;5090397;28;20040;-86
2023/07/10 09:06:19;;;;;;;8.40;2.83;;;20.60;99.90;;;;;;5104217;28;20404;-86
2023/07/10 09:08:52;;;;;;;10.10;2.60;;;20.70;99.90;;;;;;5103527;28;20043;-86
2023/07/10 09:11:19;;;;;;;10.57;2.60;;;20.70;99.90;;;;;;5092838;28;20068;-85
2023/07/10 09:13:54;;;;;;;10.05;2.72;;;20.70;99.90;;;;;;5099904;28;20036;-85
2023/07/10 09:16:21;;;;;;;13.77;3.50;;;20.80;99.90;;;;;;5091949;28;20046;-86
2023/07/10 09:18:57;;;;;;;9.18;2.80;;;20.90;99.90;;;;;;5099896;28;20058;-86
2023/07/10 09:21:31;;;;;;;11.77;3.25;;;20.90;99.90;;;;;;5093012;28;20213;-85
2023/07/10 09:23:56;;;;;;;;;;;20.90;99.90;;;;;;5100799;28;20051;-85
2023/07/10 09:26:38;;;;;;;10.52;2.88;;;20.90;99.90;;;;;;5084745;28;20310;-85
2023/07/10 09:29:10;;;;;;;11.07;2.72;;;21.00;99.90;;;;;;5068283;28;20062;-86
2023/07/10 09:31:36;;;;;;;11.30;2.15;;;21.10;99.90;;;;;;5103401;28;20051;-85
2023/07/10 09:34:01;;;;;;;11.05;2.70;;;21.10;99.90;;;;;;5102956;28;20391;-84
2023/07/10 09:36:27;;;;;;;11.00;2.70;;;21.20;99.90;;;;;;5103091;28;20043;-85
2023/07/10 09:38:53;;;;;;;10.25;2.65;;;21.20;99.90;;;;;;5102594;28;20061;-85
2023/07/10 09:41:26;;;;;;;15.77;3.40;;;21.30;99.90;;;;;;5081338;28;20048;-85
2023/07/10 09:44:13;;;;;;;15.07;3.65;;;21.30;99.90;;;;;;5080769;28;20503;-85
2023/07/10 09:46:39;;;;;;;13.13;2.95;;;21.40;99.90;;;;;;5103377;28;20494;-86
2023/07/10 09:49:14;;;;;;;9.60;2.33;;;21.40;99.90;;;;;;5100869;28;20130;-86
2023/07/10 09:52:01;;;;;;;9.18;2.53;;;21.50;99.90;;;;;;5100483;28;20506;-84
2023/07/10 09:54:39;;;;;;;13.73;3.03;;;21.50;99.90;;;;;;5091695;28;20055;-85
2023/07/10 09:57:15;;;;;;;9.63;3.10;;;21.60;99.90;;;;;;5101024;28;20050;-86
2023/07/10 09:59:53;;;;;;;12.48;2.65;;;21.20;99.90;;;;;;5083813;28;20122;-86
2023/07/10 10:02:20;;;;;;;9.57;2.53;;;21.60;99.90;;;;;;5060080;28;20050;-85
2023/07/10 10:04:52;;;;;;;12.63;2.10;;;21.70;99.90;;;;;;5104984;28;20063;-87
2023/07/10 10:07:21;;;;;;;14.57;2.75;;;21.70;99.90;;;;;;5090311;28;20040;-86
2023/07/10 10:09:47;;;;;;;12.60;2.67;;;21.80;99.90;;;;;;5102963;28;20527;-86
2023/07/10 10:12:25;;;;;;;14.75;2.50;;;21.80;99.90;;;;;;5100020;28;20068;-86
2023/07/10 10:14:59;;;;;;;12.52;2.90;;;21.80;99.90;;;;;;5102191;28;20599;-85
2023/07/10 10:17:25;;;;;;;;;;;21.80;99.90;;;;;;5090807;28;20064;-86
2023/07/10 10:19:55;;;;;;;10.18;2.50;;;21.90;99.90;;;;;;5079402;28;19974;-85
2023/07/10 10:22:29;;;;;;;11.75;2.72;;;21.80;99.90;;;;;;5101257;28;20399;-85
2023/07/10 10:24:54;;;;;;;8.70;2.20;;;21.80;99.90;;;;;;5101850;28;20036;-86
2023/07/10 10:27:39;;;;;;;11.57;2.72;;;21.70;99.90;;;;;;5097829;28;20040;-85
2023/07/10 10:30:23;;;;;;;8.57;2.47;;;21.70;99.90;;;;;;5099297;28;20048;-86
2023/07/10 10:33:02;;;;;;;12.18;2.97;;;21.80;99.90;;;;;;5100905;28;20130;-86
2023/07/10 10:36:00;;;;;;;9.88;2.25;;;22.00;99.90;;;;;;5090292;28;20039;-85
2023/07/10 10:38:48;;;;;;;8.75;2.17;;;22.10;99.90;;;;;;5089800;28;20426;-87
2023/07/10 10:41:44;;;;;;;13.32;2.70;;;22.20;99.90;;;;;;5088322;28;20519;-87
2023/07/10 10:44:44;;;;;;;10.80;2.40;;;22.20;99.90;;;;;;5099449;28;20443;-86
2023/07/10 10:47:45;;;;;;;8.85;2.10;;;22.20;99.90;;;;;;5081664;28;20047;-85
2023/07/10 10:50:28;;;;;;;11.38;2.28;;;22.20;99.90;;;;;;5045073;28;20511;-87
2023/07/10 10:53:35;;;;;;;7.87;2.10;;;22.30;99.90;;;;;;5101208;28;20040;-85
2023/07/10 10:56:29;;;;;;;9.93;2.40;;;22.20;99.90;;;;;;5006306;28;20509;-86
2023/07/10 10:59:34;;;;;;;11.60;2.83;;;22.10;99.90;;;;;;5099645;28;20050;-85
2023/07/10 11:02:55;;;;;;;10.68;2.42;;;22.00;99.90;;;;;;5095621;28;20080;-86
2023/07/10 11:05:34;;;;;;;9.50;2.13;;;22.10;99.90;;;;;;5046658;28;20044;-85
2023/07/10 11:08:05;;;;;;;9.35;2.28;;;22.20;99.90;;;;;;5091719;28;20079;-85
2023/07/10 11:10:37;;;;;;;10.90;3.03;;;22.30;99.90;;;;;;5089810;28;20039;-83
2023/07/10 11:13:16;;;;;;;10.75;3.70;;;22.40;99.90;;;;;;5097289;28;20051;-85
2023/07/10 11:15:42;;;;;;;10.10;2.38;;;22.40;99.90;;;;;;5072106;28;20479;-85
2023/07/10 11:18:12;;;;;;;8.15;1.70;;;22.40;99.90;;;;;;5108982;28;20063;-85
2023/07/10 11:21:00;;;;;;;12.75;2.33;;;22.40;99.90;;;;;;5083727;28;20040;-85
2023/07/10 11:23:32;;;;;;;12.30;2.17;;;22.50;99.90;;;;;;5102406;28;20048;-83
2023/07/10 11:26:01;;;;;;;7.90;1.90;;;22.40;99.90;;;;;;5083025;28;20100;-84
2023/07/10 11:28:29;;;;;;;12.80;2.63;;;22.30;99.90;;;;;;5101189;28;20038;-84
2023/07/10 11:31:16;;;;;;;10.43;2.38;;;22.20;99.90;;;;;;5104881;28;20059;-85
2023/07/10 11:33:43;;;;;;;12.32;2.47;;;22.20;99.90;;;;;;5089526;28;20036;-83
2023/07/10 11:36:15;;;;;;;10.02;2.38;;;22.10;99.90;;;;;;5100749;28;20051;-83
2023/07/10 11:38:58;;;;;;;11.25;2.65;;;22.10;99.90;;;;;;5085020;28;20479;-85
2023/07/10 11:41:29;;;;;;;6.57;2.10;;;22.20;99.90;;;;;;5083683;28;20066;-85
2023/07/10 11:44:35;;;;;;;11.07;1.90;;;22.20;99.90;;;;;;5095871;28;20454;-85
2023/07/10 11:47:05;;;;;;;13.57;1.95;;;22.20;99.90;;;;;;5087718;28;20054;-82
2023/07/10 11:49:54;;;;;;;18.38;2.88;;;22.30;99.90;;;;;;5090122;28;20044;-82
2023/07/10 11:52:20;;;;;;;6.85;1.52;;;22.40;99.90;;;;;;5082525;28;20044;-81
2023/07/10 11:54:48;;;;;;;7.60;2.00;;;22.70;99.90;;;;;;5088201;28;20087;-84
2023/07/10 11:57:15;;;;;;;8.20;2.38;;;22.40;99.90;;;;;;5087414;28;20152;-83
2023/07/10 11:59:47;;;;;;;7.38;2.17;;;22.50;99.90;;;;;;5088550;28;20051;-82
2023/07/10 12:02:44;;;;;;;8.60;1.65;;;22.70;99.90;;;;;;5070142;28;20032;-84
2023/07/10 12:05:35;;;;;;;9.55;2.00;;;22.90;99.90;;;;;;5076509;28;20047;-82
2023/07/10 12:08:10;;;;;;;7.40;1.63;;;23.10;99.90;;;;;;5092063;28;20075;-83
2023/07/10 12:10:40;;;;;;;7.80;1.85;;;23.20;99.90;;;;;;5064073;28;20487;-81
2023/07/10 12:13:21;;;;;;;10.82;2.05;;;23.10;99.90;;;;;;5072479;28;20036;-82
2023/07/10 12:15:48;;;;;;;9.45;2.03;;;23.10;99.90;;;;;;5080929;28;20663;-81
2023/07/10 12:18:18;;;;;;;11.90;2.58;;;23.00;99.90;;;;;;5070410;28;20136;-82
2023/07/10 12:20:49;;;;;;;9.07;1.92;;;22.90;99.90;;;;;;5073857;28;20048;-83
2023/07/10 12:23:14;;;;;;;3.75;1.23;;;22.90;99.90;;;;;;5066252;28;20128;-82
2023/07/10 12:25:48;;;;;;;8.30;2.17;;;22.90;99.90;;;;;;5074874;28;20127;-86
2023/07/10 12:28:15;;;;;;;10.52;1.75;;;22.90;99.90;;;;;;5074200;28;20127;-83
2023/07/10 12:30:41;;;;;;;9.70;1.65;;;23.00;99.90;;;;;;5092633;28;20032;-83
2023/07/10 12:33:28;;;;;;;5.53;1.45;;;23.10;99.90;;;;;;5088460;28;20044;-82
2023/07/10 12:35:55;;;;;;;5.32;1.42;;;23.20;99.90;;;;;;5086435;28;20044;-82
2023/07/10 12:38:21;;;;;;;5.03;1.20;;;23.40;99.90;;;;;;5087301;28;20036;-84
2023/07/10 12:40:46;;;;;;;6.75;1.13;;;23.40;99.90;;;;;;5098812;28;20042;-85
2023/07/10 12:43:24;;;;;;;7.95;1.40;;;23.40;99.90;;;;;;5100046;28;20441;-83
2023/07/10 12:46:17;;;;;;;3.53;0.73;;;23.40;99.90;;;;;;5070266;28;20079;-82
2023/07/10 12:48:44;;;;;;;5.65;1.02;;;23.40;99.90;;;;;;5100943;28;20468;-82
2023/07/10 12:51:21;;;;;;;5.40;1.73;;;23.60;99.90;;;;;;5079043;28;20487;-83
2023/07/10 12:53:47;;;;;;;8.93;1.45;;;23.70;99.90;;;;;;5090569;28;20048;-81